HS Bizet — A8MI3 — position and weather

sailwx.info

Track history (hours):
 
Tides and Currents Weather Stations Pressure Air Temp Water Temp Dewpoint Dewpoint Depression Visibility Wind Speed Wind Dir Waves Ship Positions

HS Bizet

Last reported at 2016-Jun-19 00:09 UTC. Time now 2016-Jun-28 20:37 UTC.
Position S 37°39' E 176°11'.
Warning: this ship's position is 9 days out of date.

Length 246 m; draft 8.6 m.

Type: Ship (hazmat cat A). MMSI: 636091349.

Date/timePositionNaut miles runAvg speedWind from/ knotsBaromVisibWave heightAir tempDewpointWater temp
2016-Jun-19 00:09S 37°39' E 176°11'  
2016-Jun-14 05:33S 35°04' E 150°58'2315.5
2016-Jun-14 04:06S 35°26' E 150°51'815.4
2016-Jun-14 03:33S 35°34' E 150°48'2115.5
2016-Jun-14 02:13S 35°54' E 150°42'1116.0
2016-Jun-14 01:33S 36°04' E 150°38'1616.0
2016-Jun-14 00:33S 36°20' E 150°33'1615.8
2016-Jun-13 23:33S 36°35' E 150°28'1716.6
2016-Jun-13 22:33S 36°51' E 150°24'1615.8
2016-Jun-13 21:33S 37°06' E 150°18'1615.8
2016-Jun-13 20:34S 37°22' E 150°13'1515.4
2016-Jun-13 19:33S 37°36' E 150°04'1514.9
2016-Jun-13 18:33S 37°45' E 149°50'1515.4
2016-Jun-13 17:33S 37°55' E 149°34'1515.4
2016-Jun-13 16:33S 38°05' E 149°20'1515.1
2016-Jun-13 15:33S 38°15' E 149°05'1615.8
2016-Jun-13 14:33S 38°25' E 148°50'1615.9
2016-Jun-13 13:33S 38°35' E 148°34'1615.9
2016-Jun-13 12:33S 38°45' E 148°19'1615.8
2016-Jun-13 11:33S 38°51' E 147°60'1616.0
2016-Jun-13 10:33S 38°57' E 147°40'1715.9
2016-Jun-13 09:30S 39°03' E 147°20'1515.8
2016-Jun-13 08:33S 39°08' E 147°02'1615.5
2016-Jun-13 07:33S 39°13' E 146°43'1515.4
2016-Jun-13 06:32S 39°16' E 146°24'1515.0
2016-Jun-13 05:33S 39°12' E 146°05'1616.0
2016-Jun-13 04:31S 39°03' E 145°48'  
Track history (hours):
 
Tides and Currents Weather Stations Pressure Air Temp Water Temp Dewpoint Dewpoint Depression Visibility Wind Speed Wind Dir Waves Ship Positions

HS Bizet

Last reported at 2016-Jun-19 00:09 UTC. Time now 2016-Jun-28 20:37 UTC.
Position S 37°39' E 176°11'.
Warning: this ship's position is 9 days out of date.

Length 246 m; draft 8.6 m.

Type: Ship (hazmat cat A). MMSI: 636091349.

Date/timePositionNaut miles runAvg speedWind from/ knotsBaromVisibWave heightAir tempDewpointWater temp
2016-Jun-19 00:09S 37°39' E 176°11'  
2016-Jun-14 05:33S 35°04' E 150°58'2315.5
2016-Jun-14 04:06S 35°26' E 150°51'815.4
2016-Jun-14 03:33S 35°34' E 150°48'2115.5
2016-Jun-14 02:13S 35°54' E 150°42'1116.0
2016-Jun-14 01:33S 36°04' E 150°38'1616.0
2016-Jun-14 00:33S 36°20' E 150°33'1615.8
2016-Jun-13 23:33S 36°35' E 150°28'1716.6
2016-Jun-13 22:33S 36°51' E 150°24'1615.8
2016-Jun-13 21:33S 37°06' E 150°18'1615.8
2016-Jun-13 20:34S 37°22' E 150°13'1515.4
2016-Jun-13 19:33S 37°36' E 150°04'1514.9
2016-Jun-13 18:33S 37°45' E 149°50'1515.4
2016-Jun-13 17:33S 37°55' E 149°34'1515.4
2016-Jun-13 16:33S 38°05' E 149°20'1515.1
2016-Jun-13 15:33S 38°15' E 149°05'1615.8
2016-Jun-13 14:33S 38°25' E 148°50'1615.9
2016-Jun-13 13:33S 38°35' E 148°34'1615.9
2016-Jun-13 12:33S 38°45' E 148°19'1615.8
2016-Jun-13 11:33S 38°51' E 147°60'1616.0
2016-Jun-13 10:33S 38°57' E 147°40'1715.9
2016-Jun-13 09:30S 39°03' E 147°20'1515.8
2016-Jun-13 08:33S 39°08' E 147°02'1615.5
2016-Jun-13 07:33S 39°13' E 146°43'1515.4
2016-Jun-13 06:32S 39°16' E 146°24'1515.0
2016-Jun-13 05:33S 39°12' E 146°05'1616.0
2016-Jun-13 04:31S 39°03' E 145°48'  

Dump ship's entire track history